Time,TemperatureF,DewpointF,PressureIn,WindDirection,WindDirectionDegrees,WindSpeedMPH,WindSpeedGustMPH,Humidity,HourlyPrecipIn,Conditions,Clouds,dailyrainin,SoftwareType,DateUTC
2013-11-15 00:21:00,45.0,43.0,29.81,WSW,252,0.0,0.0,92,0.00,,,0.00,,2013-11-15 08:21:00,
2013-11-15 00:42:00,44.0,42.0,29.81,WSW,252,0.0,0.0,92,0.00,,,0.00,,2013-11-15 08:42:00,
2013-11-15 00:52:00,44.0,42.0,29.81,WSW,252,0.0,0.0,93,0.00,,,0.00,,2013-11-15 08:52:00,
2013-11-15 01:22:00,44.0,42.0,29.82,WSW,252,0.0,1.0,93,0.00,,,0.00,,2013-11-15 09:22:00,
2013-11-15 01:43:00,45.0,43.0,29.82,WSW,252,0.0,0.0,93,0.00,,,0.00,,2013-11-15 09:43:00,
2013-11-15 01:53:00,44.0,42.0,29.82,WSW,252,0.0,0.0,92,0.00,,,0.00,,2013-11-15 09:53:00,
2013-11-15 02:22:00,42.0,40.0,29.81,WSW,252,0.0,0.0,93,0.00,,,0.00,,2013-11-15 10:22:00,
2013-11-15 02:42:00,42.0,40.0,29.81,WSW,252,0.0,0.0,93,0.00,,,0.00,,2013-11-15 10:42:00,
2013-11-15 02:52:00,42.0,40.0,29.81,WSW,252,0.0,1.0,94,0.00,,,0.00,,2013-11-15 10:52:00,
2013-11-15 03:22:00,43.0,42.0,29.81,WSW,252,0.0,1.0,95,0.00,,,0.00,,2013-11-15 11:22:00,
2013-11-15 03:42:00,43.0,42.0,29.80,WSW,252,0.0,1.0,96,0.00,,,0.00,,2013-11-15 11:42:00,
2013-11-15 03:52:00,43.0,41.0,29.80,WSW,252,0.0,0.0,94,0.00,,,0.00,,2013-11-15 11:52:00,
2013-11-15 04:21:00,41.0,39.0,29.80,WSW,252,0.0,0.0,94,0.00,,,0.00,,2013-11-15 12:21:00,
2013-11-15 04:41:00,41.0,40.0,29.79,WSW,252,0.0,0.0,95,0.00,,,0.00,,2013-11-15 12:41:00,
2013-11-15 04:52:00,39.0,37.0,29.79,WSW,252,0.0,1.0,94,0.00,,,0.00,,2013-11-15 12:52:00,
2013-11-15 05:21:00,43.0,42.0,29.79,WSW,252,0.0,1.0,97,0.00,,,0.00,,2013-11-15 13:21:00,
2013-11-15 05:52:00,41.0,40.0,29.79,WSW,252,0.0,1.0,95,0.00,,,0.00,,2013-11-15 13:52:00,
2013-11-15 06:21:00,41.0,40.0,29.79,WSW,252,0.0,0.0,96,0.00,,,0.00,,2013-11-15 14:21:00,
2013-11-15 06:41:00,41.0,40.0,29.79,WSW,252,0.0,0.0,96,0.00,,,0.00,,2013-11-15 14:41:00,
2013-11-15 06:52:00,41.0,40.0,29.79,WSW,252,0.0,0.0,96,0.00,,,0.00,,2013-11-15 14:52:00,
2013-11-15 07:21:00,40.0,39.0,29.79,WSW,252,0.0,1.0,96,0.00,,,0.00,,2013-11-15 15:21:00,
2013-11-15 07:43:00,40.0,39.0,29.80,WSW,252,0.0,0.0,96,0.00,,,0.00,,2013-11-15 15:43:00,
2013-11-15 07:53:00,41.0,40.0,29.80,WSW,252,0.0,0.0,96,0.00,,,0.00,,2013-11-15 15:53:00,
2013-11-15 08:23:00,45.0,44.0,29.79,WSW,252,0.0,1.0,98,0.00,,,0.00,,2013-11-15 16:23:00,
2013-11-15 08:43:00,47.0,42.0,29.80,NW,317,1.0,4.0,83,0.00,,,0.00,,2013-11-15 16:43:00,
2013-11-15 08:53:00,50.0,42.0,29.80,North,355,0.0,2.0,74,0.00,,,0.00,,2013-11-15 16:53:00,
2013-11-15 09:22:00,53.0,42.0,29.80,North,355,1.0,6.0,65,0.00,,,0.00,,2013-11-15 17:22:00,
2013-11-15 09:52:00,55.0,40.0,29.80,NNW,338,2.0,10.0,57,0.00,,,0.00,,2013-11-15 17:52:00,
2013-11-15 10:22:00,57.0,41.0,29.80,WNW,301,2.0,5.0,56,0.00,,,0.00,,2013-11-15 18:22:00,
2013-11-15 10:41:00,58.0,40.0,29.80,NNE,13,1.0,6.0,52,0.00,,,0.00,,2013-11-15 18:41:00,
2013-11-15 10:52:00,58.0,38.0,29.80,NNW,340,3.0,7.0,48,0.00,,,0.00,,2013-11-15 18:52:00,
2013-11-15 11:11:00,59.0,39.0,29.79,North,355,1.0,6.0,48,0.00,,,0.00,,2013-11-15 19:11:00,
2013-11-15 11:21:00,61.0,39.0,29.78,NNW,329,1.0,4.0,44,0.00,,,0.00,,2013-11-15 19:21:00,
2013-11-15 11:52:00,62.0,39.0,29.77,NNW,344,2.0,5.0,42,0.00,,,0.00,,2013-11-15 19:52:00,
2013-11-15 12:11:00,63.0,40.0,29.76,North,5,1.0,3.0,42,0.00,,,0.00,,2013-11-15 20:11:00,
2013-11-15 12:22:00,63.0,40.0,29.76,North,5,1.0,3.0,42,0.00,,,0.00,,2013-11-15 20:22:00,
2013-11-15 12:31:00,63.0,40.0,29.76,North,5,1.0,3.0,42,0.00,,,0.00,,2013-11-15 20:31:00,
2013-11-15 12:42:00,63.0,40.0,29.76,North,5,1.0,3.0,42,0.00,,,0.00,,2013-11-15 20:42:00,
2013-11-15 12:52:00,65.0,37.0,29.73,NNW,331,1.0,8.0,36,0.00,,,0.00,,2013-11-15 20:52:00,
2013-11-15 13:21:00,66.0,35.0,29.72,NW,312,3.0,7.0,32,0.00,,,0.00,,2013-11-15 21:21:00,
2013-11-15 13:54:00,68.0,36.0,29.71,NNW,330,3.0,6.0,31,0.00,,,0.00,,2013-11-15 21:54:00,
2013-11-15 14:23:00,68.0,34.0,29.71,NNW,345,5.0,8.0,28,0.00,,,0.00,,2013-11-15 22:23:00,
2013-11-15 14:43:00,68.0,34.0,29.70,NNE,19,3.0,7.0,28,0.00,,,0.00,,2013-11-15 22:43:00,
2013-11-15 14:53:00,68.0,34.0,29.69,NNW,344,2.0,6.0,28,0.00,,,0.00,,2013-11-15 22:53:00,
2013-11-15 15:22:00,69.0,34.0,29.69,NNW,333,1.0,7.0,27,0.00,,,0.00,,2013-11-15 23:22:00,
2013-11-15 15:52:00,68.0,32.0,29.69,NNW,340,3.0,5.0,26,0.00,,,0.00,,2013-11-15 23:52:00,
2013-11-15 16:21:00,69.0,34.0,29.69,NNW,338,0.0,1.0,27,0.00,,,0.00,,2013-11-16 00:21:00,
2013-11-15 16:42:00,68.0,33.0,29.69,North,355,1.0,4.0,27,0.00,,,0.00,,2013-11-16 00:42:00,
2013-11-15 16:52:00,67.0,33.0,29.70,North,5,0.0,2.0,28,0.00,,,0.00,,2013-11-16 00:52:00,
2013-11-15 17:21:00,64.0,33.0,29.69,NNW,348,0.0,0.0,31,0.00,,,0.00,,2013-11-16 01:21:00,
2013-11-15 17:52:00,61.0,35.0,29.70,NNW,348,0.0,1.0,37,0.00,,,0.00,,2013-11-16 01:52:00,
2013-11-15 18:22:00,56.0,33.0,29.69,NNW,348,0.0,0.0,41,0.00,,,0.00,,2013-11-16 02:22:00,
2013-11-15 18:42:00,56.0,33.0,29.70,NNW,348,0.0,0.0,42,0.00,,,0.00,,2013-11-16 02:42:00,
2013-11-15 18:52:00,55.0,33.0,29.71,NNW,348,0.0,0.0,44,0.00,,,0.00,,2013-11-16 02:52:00,
2013-11-15 19:21:00,52.0,31.0,29.72,West,281,2.0,3.0,45,0.00,,,0.00,,2013-11-16 03:21:00,
2013-11-15 19:44:00,54.0,36.0,29.72,West,265,0.0,5.0,51,0.00,,,0.00,,2013-11-16 03:44:00,
2013-11-15 19:55:00,55.0,38.0,29.73,West,267,1.0,7.0,52,0.00,,,0.00,,2013-11-16 03:55:00,
2013-11-15 20:23:00,54.0,40.0,29.73,West,273,0.0,1.0,58,0.00,,,0.00,,2013-11-16 04:23:00,
2013-11-15 20:53:00,52.0,39.0,29.73,West,271,0.0,3.0,62,0.00,,,0.00,,2013-11-16 04:53:00,
2013-11-15 21:23:00,51.0,39.0,29.74,West,271,0.0,1.0,64,0.00,,,0.00,,2013-11-16 05:23:00,
2013-11-15 21:43:00,49.0,39.0,29.73,West,271,0.0,1.0,69,0.00,,,0.00,,2013-11-16 05:43:00,
2013-11-15 21:52:00,49.0,40.0,29.73,West,271,0.0,1.0,70,0.00,,,0.00,,2013-11-16 05:52:00,
2013-11-15 22:22:00,48.0,39.0,29.75,West,271,0.0,0.0,72,0.00,,,0.00,,2013-11-16 06:22:00,
2013-11-15 22:52:00,44.0,36.0,29.73,SW,226,0.0,1.0,74,0.00,,,0.00,,2013-11-16 06:52:00,
2013-11-15 23:22:00,44.0,38.0,29.75,SW,226,0.0,0.0,78,0.00,,,0.00,,2013-11-16 07:22:00,
2013-11-15 23:42:00,43.0,36.0,29.75,SW,226,0.0,0.0,77,0.00,,,0.00,,2013-11-16 07:42:00,
2013-11-15 23:52:00,42.0,35.0,29.76,SW,226,0.0,1.0,77,0.00,,,0.00,,2013-11-16 07:52:00,